Terminal Aerodrome Forecast
Issued by NWS

Home | Current Version | Previous Version | Text Only | Print | Product List | Glossary On
Versions: 1 2 3 4 5 6 7 8 9 10 11 12 13 14 15 16 17 18 19 20 21 22 23 24 25 26 27 28 29 30 31 32
000
FTUS43 KLSX 161131
TAFUIN
TAF
KUIN 161131Z 1612/1712 10008KT 1/4SM FG VCSH OVC002
     FM161400 10008KT 1/2SM -SHRA FG OVC002
     FM161600 11009KT 2SM -SHRA BR OVC003
     FM170000 14008KT 3SM -SHRA OVC004
     FM170200 16007KT 4SM BR VCSH OVC005
     FM170600 23009KT 4SM BR OVC003=

USA.gov is the U.S. government's official web portal to all federal, state and local government web resources and services.